Time;durP1;ratioP1;P1;durP2;ratioP2;P2;SDS_P1;SDS_P2;PMS_P1;PMS_P2;Temp;Humidity;BMP_temperature;BMP_pressure;BME280_temperature;BME280_humidity;BME280_pressure;Samples;Min_cycle;Max_cycle;Signal;HPM_P1;HPM_P2
2023/05/02 00:01:38;;;;;;;11.32;6.72;;;13.40;99.90;;;;;;2621805;46;20023;31
2023/05/02 00:04:15;;;;;;;9.98;6.30;;;13.40;99.90;;;;;;2602976;54;20078;31
2023/05/02 00:06:50;;;;;;;10.05;7.20;;;13.30;99.90;;;;;;2621487;46;20029;31
2023/05/02 00:09:26;;;;;;;8.65;7.40;;;13.20;99.90;;;;;;2603034;54;20795;31
2023/05/02 00:12:07;;;;;;;13.45;8.40;;;13.10;99.90;;;;;;2621770;46;20117;31
2023/05/02 00:14:47;;;;;;;10.07;6.97;;;13.10;99.90;;;;;;2603069;54;20034;31
2023/05/02 00:17:22;;;;;;;10.05;7.68;;;13.00;99.90;;;;;;2621240;46;20872;31
2023/05/02 00:19:58;;;;;;;9.40;6.93;;;12.90;99.90;;;;;;2602586;54;20853;31
2023/05/02 00:22:40;;;;;;;7.95;6.60;;;12.90;99.90;;;;;;2603264;54;20030;31
2023/05/02 00:25:27;;;;;;;8.82;6.93;;;12.80;99.90;;;;;;2602284;54;20056;31
2023/05/02 00:28:13;;;;;;;9.35;7.70;;;12.70;99.90;;;;;;2603027;54;20922;31
2023/05/02 00:30:57;;;;;;;11.30;7.60;;;12.70;99.90;;;;;;2603023;54;20899;31
2023/05/02 00:33:40;;;;;;;10.07;7.10;;;12.70;99.90;;;;;;2603068;54;20804;31
2023/05/02 00:36:17;;;;;;;12.25;7.32;;;12.60;99.90;;;;;;2603093;54;20116;31
2023/05/02 00:38:57;;;;;;;10.40;7.30;;;12.60;99.90;;;;;;2620684;46;20093;31
2023/05/02 00:41:34;;;;;;;10.50;8.00;;;12.50;99.90;;;;;;2621425;46;20038;31
2023/05/02 00:44:15;;;;;;;10.55;7.80;;;12.50;99.90;;;;;;2621411;46;20027;31
2023/05/02 00:46:53;;;;;;;13.75;7.32;;;12.50;99.90;;;;;;2602874;54;20026;31
2023/05/02 00:49:34;;;;;;;10.80;8.20;;;12.40;99.90;;;;;;2603090;54;20042;31
2023/05/02 00:52:15;;;;;;;10.70;7.22;;;12.40;99.90;;;;;;2602550;54;25118;31
2023/05/02 00:54:53;;;;;;;12.20;7.30;;;12.40;99.90;;;;;;2621498;46;20022;31
2023/05/02 00:57:37;;;;;;;10.30;7.68;;;12.40;99.90;;;;;;2602762;54;20811;31
2023/05/02 01:00:12;;;;;;;9.35;7.15;;;12.40;99.90;;;;;;2603006;54;20018;31
2023/05/02 01:02:57;;;;;;;12.70;8.18;;;12.30;99.90;;;;;;2602860;54;20861;31
2023/05/02 01:05:44;;;;;;;10.68;8.32;;;12.40;99.90;;;;;;2602936;54;19934;31
2023/05/02 01:08:23;;;;;;;11.37;7.70;;;12.30;99.90;;;;;;2601956;54;20097;31
2023/05/02 01:11:01;;;;;;;10.23;7.80;;;12.30;99.90;;;;;;2603002;54;20246;31
2023/05/02 01:16:10;;;;;;;10.03;7.37;;;12.20;99.90;;;;;;2602791;54;20033;31
2023/05/02 01:18:49;;;;;;;14.32;8.70;;;12.10;99.90;;;;;;2628440;39;21549;31
2023/05/02 01:21:33;;;;;;;9.82;7.68;;;12.10;99.90;;;;;;2601881;54;20169;31
2023/05/02 01:24:13;;;;;;;10.30;7.25;;;12.10;99.90;;;;;;2601676;54;20049;31
2023/05/02 01:26:54;;;;;;;8.50;6.75;;;12.10;99.90;;;;;;2601741;54;20045;31
2023/05/02 01:29:33;;;;;;;11.35;7.75;;;12.10;99.90;;;;;;2622761;47;20046;31
2023/05/02 01:32:12;;;;;;;12.77;7.95;;;12.10;99.90;;;;;;2604669;54;20060;31
2023/05/02 01:34:51;;;;;;;11.25;6.80;;;12.10;99.90;;;;;;2623090;46;20030;31
2023/05/02 01:40:08;;;;;;;8.98;7.10;;;12.10;99.90;;;;;;2604458;54;20309;31
2023/05/02 01:42:45;;;;;;;9.70;7.00;;;12.20;99.90;;;;;;2619956;39;20330;31
2023/05/02 01:45:35;;;;;;;10.20;7.18;;;12.20;99.90;;;;;;2604503;54;20029;31
2023/05/02 01:48:17;;;;;;;10.48;7.82;;;12.20;99.90;;;;;;2604674;54;20018;31
2023/05/02 01:50:52;;;;;;;10.50;7.28;;;12.20;99.90;;;;;;2604523;54;20448;31
2023/05/02 01:53:37;;;;;;;11.30;6.55;;;12.20;99.90;;;;;;2619670;46;20033;31
2023/05/02 01:56:17;;;;;;;10.95;7.82;;;12.20;99.90;;;;;;2604305;54;20048;31
2023/05/02 01:58:55;;;;;;;10.10;7.50;;;12.20;99.90;;;;;;2603776;54;20066;31
2023/05/02 02:01:36;;;;;;;10.43;7.05;;;12.20;99.90;;;;;;2603669;54;20042;31
2023/05/02 02:04:13;;;;;;;11.65;6.85;;;12.20;99.90;;;;;;2604502;54;20035;31
2023/05/02 02:06:54;;;;;;;11.32;8.25;;;12.10;99.90;;;;;;2622794;46;20854;31
2023/05/02 02:09:33;;;;;;;10.17;7.60;;;12.10;99.90;;;;;;2604221;54;19993;31
2023/05/02 02:12:10;;;;;;;11.25;8.35;;;12.10;99.90;;;;;;2603513;54;20278;31
2023/05/02 02:14:48;;;;;;;12.13;8.90;;;12.10;99.90;;;;;;2604377;54;20045;31
2023/05/02 02:17:32;;;;;;;10.32;8.13;;;12.10;99.90;;;;;;2604447;54;20867;31
2023/05/02 02:20:17;;;;;;;10.40;6.93;;;12.00;99.90;;;;;;2622671;46;20965;31
2023/05/02 02:23:01;;;;;;;17.70;8.20;;;12.00;99.90;;;;;;2608441;39;20273;31
2023/05/02 02:25:39;;;;;;;10.05;7.30;;;12.00;99.90;;;;;;2622834;46;20501;31
2023/05/02 02:28:26;;;;;;;11.18;8.18;;;12.00;99.90;;;;;;2604327;54;20419;31
2023/05/02 02:31:09;;;;;;;11.50;7.83;;;11.90;99.90;;;;;;2603526;54;20887;31
2023/05/02 02:33:54;;;;;;;13.97;8.30;;;11.90;99.90;;;;;;2603338;54;20037;31
2023/05/02 02:36:40;;;;;;;10.33;6.97;;;11.80;99.90;;;;;;2604213;54;20081;31
2023/05/02 02:39:21;;;;;;;10.87;8.57;;;11.80;99.90;;;;;;2604391;54;21169;31
2023/05/02 02:42:07;;;;;;;10.48;6.90;;;11.80;99.90;;;;;;2613994;47;20274;31
2023/05/02 02:44:47;;;;;;;12.10;7.70;;;11.80;99.90;;;;;;2621927;46;20023;31
2023/05/02 02:47:26;;;;;;;12.60;7.80;;;11.80;99.90;;;;;;2603478;54;20045;31
2023/05/02 02:50:17;;;;;;;8.70;7.13;;;11.80;99.90;;;;;;2603401;54;20026;31
2023/05/02 02:55:42;;;;;;;10.95;8.30;;;11.70;99.90;;;;;;2603496;54;20894;31
2023/05/02 02:58:30;;;;;;;12.05;7.35;;;11.70;99.90;;;;;;2603182;54;20097;31
2023/05/02 03:01:10;;;;;;;9.57;8.40;;;11.70;99.90;;;;;;2603271;54;20026;31
2023/05/02 03:03:48;;;;;;;12.43;8.63;;;11.60;99.90;;;;;;2622074;46;20050;31
2023/05/02 03:06:29;;;;;;;9.15;7.10;;;11.50;99.90;;;;;;2621717;46;20043;31
2023/05/02 03:09:08;;;;;;;10.18;7.93;;;11.50;99.90;;;;;;2603323;54;20869;31
2023/05/02 03:11:47;;;;;;;9.60;7.63;;;11.50;99.90;;;;;;2602913;54;20030;31
2023/05/02 03:14:26;;;;;;;12.17;8.83;;;11.50;99.90;;;;;;2621566;46;20019;31
2023/05/02 03:17:08;;;;;;;12.23;8.55;;;11.60;99.90;;;;;;2603273;54;20127;31
2023/05/02 03:19:56;;;;;;;14.40;9.70;;;11.50;99.90;;;;;;2603435;54;20438;31
2023/05/02 03:22:38;;;;;;;13.85;8.68;;;11.60;99.90;;;;;;2603452;54;20395;31
2023/05/02 03:25:13;;;;;;;9.75;7.57;;;11.60;99.90;;;;;;2603143;54;20744;31
2023/05/02 03:27:53;;;;;;;8.60;6.60;;;11.60;99.90;;;;;;2603416;54;20019;31
2023/05/02 03:30:30;;;;;;;10.35;7.55;;;11.60;99.90;;;;;;2602898;54;20426;31
2023/05/02 03:33:07;;;;;;;10.13;6.82;;;11.70;99.90;;;;;;2621864;46;20729;31
2023/05/02 03:35:44;;;;;;;10.03;6.50;;;11.70;99.90;;;;;;2603164;54;20433;31
2023/05/02 03:38:27;;;;;;;5.88;5.10;;;11.70;99.90;;;;;;2603128;54;20399;31
2023/05/02 03:41:10;;;;;;;8.45;5.90;;;11.70;99.90;;;;;;2602948;54;20046;31
2023/05/02 03:43:46;;;;;;;13.77;7.22;;;11.80;99.90;;;;;;2603177;54;20799;31
2023/05/02 03:46:25;;;;;;;14.68;8.48;;;11.80;99.90;;;;;;2603090;54;20815;31
2023/05/02 03:49:04;;;;;;;12.38;6.28;;;11.80;99.90;;;;;;2621750;46;20029;31
2023/05/02 03:51:47;;;;;;;9.93;5.07;;;11.80;99.90;;;;;;2603007;54;20043;31
2023/05/02 03:54:38;;;;;;;6.78;4.95;;;11.90;99.90;;;;;;2621601;46;20257;31
2023/05/02 03:57:13;;;;;;;7.30;4.60;;;12.00;99.90;;;;;;2603331;54;20970;31
2023/05/02 03:59:53;;;;;;;7.10;4.80;;;11.90;99.90;;;;;;2602973;54;20871;31
2023/05/02 04:02:39;;;;;;;8.18;4.95;;;12.00;99.90;;;;;;2603120;54;20449;31
2023/05/02 04:05:23;;;;;;;6.27;4.20;;;12.00;99.90;;;;;;2637224;39;20326;31
2023/05/02 04:08:03;;;;;;;6.15;4.38;;;12.10;99.90;;;;;;2603051;54;20256;31
2023/05/02 04:10:39;;;;;;;8.60;5.28;;;12.10;99.90;;;;;;2618887;39;20554;31
2023/05/02 04:13:25;;;;;;;5.27;3.93;;;12.20;99.90;;;;;;2621571;46;20841;31
2023/05/02 04:16:12;;;;;;;4.95;4.18;;;12.20;99.90;;;;;;2603086;54;21128;31
2023/05/02 04:18:54;;;;;;;5.60;4.28;;;12.20;99.90;;;;;;2602292;54;20162;31
2023/05/02 04:21:42;;;;;;;9.20;5.05;;;12.20;99.90;;;;;;2602233;54;20077;31
2023/05/02 04:24:19;;;;;;;6.63;4.38;;;12.20;99.90;;;;;;2602213;54;20034;31
2023/05/02 04:26:56;;;;;;;7.00;4.60;;;12.30;99.90;;;;;;2649530;39;20383;31
2023/05/02 04:29:39;;;;;;;5.53;3.92;;;12.30;99.90;;;;;;2602974;54;20906;31
2023/05/02 04:32:20;;;;;;;6.03;4.70;;;12.30;99.90;;;;;;2603011;54;20030;31
2023/05/02 04:35:06;;;;;;;8.65;4.88;;;12.40;99.90;;;;;;2602981;54;20019;31
2023/05/02 04:37:59;;;;;;;9.18;4.82;;;12.30;99.90;;;;;;2627378;39;20849;31
2023/05/02 04:40:45;;;;;;;6.15;4.25;;;12.30;99.90;;;;;;2602826;54;20023;31
2023/05/02 04:43:30;;;;;;;5.55;3.80;;;12.40;99.90;;;;;;2621190;46;20022;31
2023/05/02 04:46:17;;;;;;;6.30;4.05;;;12.40;99.90;;;;;;2603144;54;20887;31
2023/05/02 04:49:01;;;;;;;5.55;4.75;;;12.40;99.90;;;;;;2602944;54;20034;31
2023/05/02 04:51:43;;;;;;;6.40;4.13;;;12.40;99.90;;;;;;2602767;54;20947;31
2023/05/02 04:57:17;;;;;;;5.53;4.53;;;12.40;99.90;;;;;;2603031;54;20046;31
2023/05/02 05:00:01;;;;;;;13.25;4.50;;;12.40;99.90;;;;;;2602922;54;20053;31
2023/05/02 05:02:42;;;;;;;9.27;4.50;;;12.50;99.90;;;;;;2602620;54;20089;31
2023/05/02 05:05:23;;;;;;;6.65;4.85;;;12.50;99.90;;;;;;2602932;54;20057;31
2023/05/02 05:07:58;;;;;;;7.32;4.85;;;12.50;99.90;;;;;;2621506;46;20037;31
2023/05/02 05:10:39;;;;;;;7.80;5.32;;;12.50;99.90;;;;;;2603049;54;20025;31
2023/05/02 05:13:15;;;;;;;9.37;4.73;;;12.50;99.90;;;;;;2602662;54;20793;31
2023/05/02 05:15:56;;;;;;;7.70;5.30;;;12.60;99.90;;;;;;2601839;54;20276;31
2023/05/02 05:18:42;;;;;;;7.70;4.78;;;12.60;99.90;;;;;;2611789;31;20453;31
2023/05/02 05:21:26;;;;;;;6.20;4.65;;;12.60;99.90;;;;;;2621123;46;20855;31
2023/05/02 05:24:08;;;;;;;7.55;4.75;;;12.60;99.90;;;;;;2603025;54;19950;31
2023/05/02 05:26:49;;;;;;;6.53;4.68;;;12.70;99.90;;;;;;2602954;54;20023;31
2023/05/02 05:29:28;;;;;;;6.80;5.32;;;12.70;99.90;;;;;;2608561;39;21525;31
2023/05/02 05:32:08;;;;;;;7.60;5.15;;;12.70;99.90;;;;;;2602685;54;20027;31
2023/05/02 05:34:46;;;;;;;7.13;5.20;;;12.80;99.90;;;;;;2602049;54;20917;31
2023/05/02 05:37:27;;;;;;;6.95;5.00;;;12.70;99.90;;;;;;2620966;47;20876;31
2023/05/02 05:40:08;;;;;;;6.05;4.50;;;12.80;99.90;;;;;;2601995;54;20446;31
2023/05/02 05:42:48;;;;;;;6.00;4.87;;;12.80;99.90;;;;;;2620483;47;20894;31
2023/05/02 05:45:31;;;;;;;7.57;5.53;;;12.80;99.90;;;;;;2602686;54;20137;31
2023/05/02 05:48:15;;;;;;;9.32;6.28;;;12.80;99.90;;;;;;2602685;54;20133;31
2023/05/02 05:50:59;;;;;;;7.80;6.80;;;12.90;99.90;;;;;;2621372;47;20060;31
2023/05/02 05:53:36;;;;;;;10.73;6.53;;;12.90;99.90;;;;;;2602662;54;20031;31
2023/05/02 05:56:16;;;;;;;8.70;7.03;;;12.90;99.90;;;;;;2602795;54;21450;31
2023/05/02 05:59:04;;;;;;;9.80;6.60;;;12.90;99.90;;;;;;2602661;54;20049;31
2023/05/02 06:01:41;;;;;;;10.07;7.47;;;12.90;99.90;;;;;;2603025;54;20088;31
2023/05/02 06:04:20;;;;;;;10.10;6.83;;;13.00;99.90;;;;;;2602730;54;20844;31
2023/05/02 06:06:57;;;;;;;8.30;6.93;;;13.00;99.90;;;;;;2602655;54;20269;31
2023/05/02 06:09:49;;;;;;;10.30;6.80;;;13.10;99.90;;;;;;2602668;54;20033;31
2023/05/02 06:12:49;;;;;;;10.10;7.35;;;13.10;99.90;;;;;;2602785;54;20030;31
2023/05/02 06:15:41;;;;;;;10.85;7.50;;;13.20;99.90;;;;;;2602796;54;20116;31
2023/05/02 06:21:11;;;;;;;10.32;7.32;;;13.30;99.90;;;;;;2602739;54;20023;31
2023/05/02 06:23:48;;;;;;;9.70;6.50;;;13.40;99.90;;;;;;2603458;54;20049;31
2023/05/02 06:26:37;;;;;;;9.70;6.65;;;13.50;99.90;;;;;;2603288;54;20796;31
2023/05/02 06:29:13;;;;;;;7.70;6.43;;;13.50;99.90;;;;;;2603459;54;21182;31
2023/05/02 06:31:50;;;;;;;7.55;6.57;;;13.60;99.90;;;;;;2621575;46;20027;31
2023/05/02 06:34:27;;;;;;;7.90;5.80;;;13.70;99.90;;;;;;2603227;54;20026;31
2023/05/02 06:37:03;;;;;;;7.33;5.70;;;13.80;99.90;;;;;;2603522;54;20030;31
2023/05/02 06:39:45;;;;;;;6.88;5.15;;;13.90;99.90;;;;;;2621679;46;20249;31
2023/05/02 06:42:26;;;;;;;8.55;5.47;;;14.00;99.90;;;;;;2602560;54;20153;31
2023/05/02 06:45:03;;;;;;;7.90;6.00;;;14.10;99.90;;;;;;2649585;39;21292;31
2023/05/02 06:47:44;;;;;;;8.52;5.63;;;14.20;99.90;;;;;;2603460;54;20030;31
2023/05/02 06:50:21;;;;;;;10.47;6.13;;;14.30;99.90;;;;;;2603451;54;20146;31
2023/05/02 06:52:57;;;;;;;8.20;5.97;;;14.40;99.90;;;;;;2603178;54;20917;31
2023/05/02 06:55:36;;;;;;;7.13;5.00;;;14.50;99.90;;;;;;2603184;54;20101;31
2023/05/02 06:58:25;;;;;;;9.00;6.35;;;14.60;99.90;;;;;;2602658;54;20038;31
2023/05/02 07:01:05;;;;;;;8.95;5.05;;;14.80;99.90;;;;;;2603469;54;20872;31
2023/05/02 07:03:45;;;;;;;6.77;5.00;;;15.00;99.90;;;;;;2602401;54;20043;31
2023/05/02 07:09:16;;;;;;;5.50;4.05;;;15.30;99.90;;;;;;2621438;46;20085;31
2023/05/02 07:11:54;;;;;;;6.85;4.43;;;15.50;99.90;;;;;;2606246;46;19934;31
2023/05/02 07:14:33;;;;;;;6.57;5.38;;;15.60;99.90;;;;;;2615579;46;20861;31
2023/05/02 07:17:15;;;;;;;6.85;4.60;;;15.70;99.90;;;;;;2602846;54;20053;31
2023/05/02 07:22:26;;;;;;;9.40;5.20;;;16.10;99.90;;;;;;2602465;54;20878;31
2023/05/02 07:25:03;;;;;;;7.07;5.38;;;16.20;99.90;;;;;;2615458;46;20023;31
2023/05/02 07:27:42;;;;;;;8.15;4.75;;;16.40;99.90;;;;;;2617290;46;20027;31
2023/05/02 07:46:23;;;;;;;7.78;5.60;;;17.20;99.90;;;;;;2602829;54;20026;31
2023/05/02 07:52:04;;;;;;;8.77;5.30;;;17.40;99.90;;;;;;2602956;54;20022;31
2023/05/02 08:02:23;;;;;;;7.40;5.40;;;17.70;99.90;;;;;;2603062;54;20044;31
2023/05/02 08:05:31;;;;;;;7.78;5.20;;;17.80;99.90;;;;;;2603078;54;20798;31
2023/05/02 08:11:36;;;;;;;11.20;5.55;;;17.80;99.90;;;;;;2602417;54;20038;31
2023/05/02 08:20:03;;;;;;;8.93;5.43;;;18.00;99.90;;;;;;2603076;54;20865;31
2023/05/02 08:22:49;;;;;;;7.15;5.05;;;18.00;99.90;;;;;;2603091;54;20641;31
2023/05/02 08:25:38;;;;;;;6.93;4.95;;;18.10;99.90;;;;;;2621245;46;20778;31
2023/05/02 08:28:18;;;;;;;6.80;5.03;;;18.10;99.90;;;;;;2603127;54;20850;31
2023/05/02 08:31:38;;;;;;;10.02;5.43;;;18.10;99.90;;;;;;2603057;54;20086;31
2023/05/02 08:34:49;;;;;;;6.82;4.90;;;18.10;99.90;;;;;;2603100;54;20422;31
2023/05/02 08:38:06;;;;;;;7.95;5.68;;;18.10;99.90;;;;;;2606423;46;22212;31
2023/05/02 08:44:43;;;;;;;8.07;5.45;;;18.20;99.90;;;;;;2602876;54;20035;31
2023/05/02 08:47:39;;;;;;;7.88;5.55;;;18.20;99.90;;;;;;2621277;46;20038;31
2023/05/02 08:50:44;;;;;;;9.95;4.70;;;18.30;99.90;;;;;;2603223;54;20843;31
2023/05/02 08:53:45;;;;;;;8.25;4.65;;;18.20;99.90;;;;;;2621204;46;20029;31
2023/05/02 08:56:41;;;;;;;6.05;4.50;;;18.30;99.90;;;;;;2602909;54;20417;31
2023/05/02 08:59:31;;;;;;;6.00;4.85;;;18.20;99.90;;;;;;2602699;54;20043;31
2023/05/02 09:02:30;;;;;;;7.43;4.60;;;18.30;99.90;;;;;;2620616;46;20861;31
2023/05/02 09:05:12;;;;;;;8.30;5.15;;;18.20;99.90;;;;;;2602968;54;20033;31
2023/05/02 09:07:51;;;;;;;6.68;4.28;;;18.20;99.90;;;;;;2601935;54;20030;31
2023/05/02 09:10:28;;;;;;;7.43;5.30;;;18.30;99.90;;;;;;2601883;54;21536;31
2023/05/02 09:13:57;;;;;;;11.07;5.10;;;18.20;99.90;;;;;;2602123;54;20776;31
2023/05/02 09:17:08;;;;;;;8.98;5.45;;;18.30;99.90;;;;;;2602712;54;20924;31
2023/05/02 09:22:52;;;;;;;8.05;5.40;;;18.30;99.90;;;;;;2602271;54;20458;31
2023/05/02 09:25:42;;;;;;;9.52;4.95;;;18.40;99.90;;;;;;2602909;54;20758;31
2023/05/02 09:31:36;;;;;;;6.32;4.95;;;18.40;99.90;;;;;;2618211;39;20339;31
2023/05/02 09:34:27;;;;;;;5.35;4.55;;;18.50;99.90;;;;;;2620987;47;20045;31
2023/05/02 09:37:18;;;;;;;8.68;5.35;;;18.60;99.90;;;;;;2602913;54;20415;31
2023/05/02 09:46:02;;;;;;;6.37;4.80;;;18.60;99.90;;;;;;2602350;54;20042;31
2023/05/02 09:51:56;;;;;;;6.80;4.70;;;18.60;99.90;;;;;;2621558;46;20153;31
2023/05/02 09:55:06;;;;;;;9.30;5.35;;;18.60;99.90;;;;;;2603649;54;20081;31
2023/05/02 10:00:23;;;;;;;10.15;5.60;;;18.60;99.90;;;;;;2621278;46;21774;31
2023/05/02 10:03:02;;;;;;;10.30;5.30;;;18.70;99.90;;;;;;2622105;46;19935;31
2023/05/02 10:05:41;;;;;;;9.15;5.25;;;18.70;99.90;;;;;;2621788;46;21172;31
2023/05/02 10:08:27;;;;;;;7.50;6.10;;;18.90;99.90;;;;;;2603526;54;20888;31
2023/05/02 10:11:13;;;;;;;8.05;5.68;;;18.90;99.90;;;;;;2603516;54;20022;31
2023/05/02 10:13:55;;;;;;;6.97;5.45;;;19.00;99.90;;;;;;2603275;54;20033;31
2023/05/02 10:16:50;;;;;;;6.00;5.25;;;19.10;99.90;;;;;;2603492;54;20052;31
2023/05/02 10:19:32;;;;;;;8.05;5.13;;;19.10;99.90;;;;;;2603638;54;20939;31
2023/05/02 10:25:10;;;;;;;8.57;5.35;;;19.40;99.90;;;;;;2603323;54;20037;31
2023/05/02 10:27:52;;;;;;;9.45;5.15;;;19.50;99.90;;;;;;2602897;54;20038;31
2023/05/02 10:30:32;;;;;;;10.38;4.57;;;19.70;99.90;;;;;;2603406;54;20791;31
2023/05/02 10:33:19;;;;;;;7.28;3.83;;;19.80;99.90;;;;;;2629150;39;20326;31
2023/05/02 10:36:00;;;;;;;8.43;3.70;;;19.90;99.90;;;;;;2621765;46;20037;31
2023/05/02 10:51:20;;;;;;;7.15;3.88;;;20.20;99.90;;;;;;2602506;54;25106;31
2023/05/02 11:17:28;;;;;;;7.57;5.80;;;20.70;99.90;;;;;;2603005;54;20074;31
2023/05/02 11:26:42;;;;;;;;;;;;;;;;;;;;;
2023/05/02 11:33:02;;;;;;;9.20;5.75;;;20.70;99.90;;;;;;2606137;46;20250;31
2023/05/02 11:50:50;;;;;;;6.35;4.75;;;20.60;99.90;;;;;;2603267;54;20030;31
2023/05/02 11:53:39;;;;;;;6.65;4.85;;;20.70;99.90;;;;;;2603444;54;20053;31
2023/05/02 11:59:24;;;;;;;6.30;4.60;;;20.70;99.90;;;;;;2602416;54;20030;31
2023/05/02 12:09:21;;;;;;;8.37;5.73;;;20.70;99.90;;;;;;2603052;54;20756;31
2023/05/02 12:12:24;;;;;;;6.57;5.07;;;20.80;99.90;;;;;;2603165;54;20400;31
2023/05/02 12:21:03;;;;;;;11.38;5.90;;;20.80;99.90;;;;;;2603106;54;20788;31
2023/05/02 12:27:36;;;;;;;6.65;5.35;;;20.80;99.90;;;;;;2603119;54;20030;31
2023/05/02 12:36:51;;;;;;;9.32;5.20;;;20.00;99.90;;;;;;2602315;54;20804;31
2023/05/02 12:39:39;;;;;;;11.43;5.50;;;19.60;99.90;;;;;;2601823;54;20882;31
2023/05/02 12:42:19;;;;;;;7.45;6.07;;;18.70;99.90;;;;;;2602387;54;21160;31
2023/05/02 12:44:58;;;;;;;9.38;6.40;;;18.10;99.90;;;;;;2602895;54;21037;31
2023/05/02 12:47:46;;;;;;;11.23;6.45;;;17.60;99.90;;;;;;2602190;54;20832;31
2023/05/02 12:50:22;;;;;;;7.75;6.40;;;17.10;99.90;;;;;;2602329;54;20030;31
2023/05/02 12:53:17;;;;;;;7.32;6.05;;;16.80;99.90;;;;;;2602941;54;20078;31
2023/05/02 12:56:09;;;;;;;12.10;6.28;;;16.60;99.90;;;;;;2677803;39;20466;31
2023/05/02 12:58:50;;;;;;;11.25;6.38;;;16.50;99.90;;;;;;2602858;54;20049;31
2023/05/02 13:01:34;;;;;;;9.45;6.20;;;16.40;99.90;;;;;;2602992;54;20442;31
2023/05/02 13:04:19;;;;;;;10.15;5.63;;;16.40;99.90;;;;;;2602308;54;20038;31
2023/05/02 13:06:57;;;;;;;8.90;6.53;;;16.30;99.90;;;;;;2602952;54;20758;31
2023/05/02 13:09:33;;;;;;;7.00;5.80;;;16.30;99.90;;;;;;2621156;46;20030;31
2023/05/02 13:12:15;;;;;;;6.80;4.85;;;16.20;99.90;;;;;;2602852;54;20897;31
2023/05/02 13:14:55;;;;;;;8.48;4.30;;;16.20;99.90;;;;;;2602777;54;20914;31
2023/05/02 13:17:39;;;;;;;6.20;4.27;;;16.20;99.90;;;;;;2603194;54;19997;31
2023/05/02 13:20:15;;;;;;;7.13;4.22;;;16.20;99.90;;;;;;2602699;54;20493;31
2023/05/02 13:22:56;;;;;;;5.35;4.05;;;16.20;99.90;;;;;;2602811;54;20891;31
2023/05/02 13:25:35;;;;;;;7.00;4.53;;;16.20;99.90;;;;;;2601907;54;20034;31
2023/05/02 13:31:18;;;;;;;4.50;3.15;;;16.10;99.90;;;;;;2602109;54;20885;31
2023/05/02 13:34:01;;;;;;;7.90;3.25;;;16.20;99.90;;;;;;2601994;54;20094;31
2023/05/02 13:43:05;;;;;;;4.75;3.10;;;16.40;99.90;;;;;;2600711;54;19934;31
2023/05/02 13:48:52;;;;;;;4.57;2.53;;;16.50;99.90;;;;;;2602927;54;20250;31
2023/05/02 23:06:48;;;;;;;7.10;5.60;;;12.40;99.90;;;;;;2600633;54;20015;31
2023/05/02 23:09:53;;;;;;;12.52;5.03;;;12.40;99.90;;;;;;2621287;46;20023;31
